Terminal Aerodrome Forecast
Issued by NWS

Home | Current Version | Previous Version | Text Only | Print | Product List | Glossary On
Versions: 1 2 3 4 5 6 7 8 9 10 11 12 13 14 15 16 17 18
000
FTAK31 PANC 160544
TAFAIL
TAF
PAIL 160544Z 1606/1706 14005KT 3SM -SHSN SCT010 OVC025
      TEMPO 1606/1608 1SM -SN OVC010
     FM160900 19005KT P6SM -SHSN BKN015
     FM161500 VRB05KT 3SM -SHSN SCT015 OVC025
     FM161900 07008KT P6SM SCT025 BKN080=

USA.gov is the U.S. government's official web portal to all federal, state and local government web resources and services.